sensor_id;sensor_type;location;lat;lon;timestamp;temperature;humidity
3794;DHT22;1912;51.358;12.282;2023-04-03T03:48:01;-0.30;1.00
3794;DHT22;1912;51.358;12.282;2023-04-03T03:50:27;-0.40;1.00
3794;DHT22;1912;51.358;12.282;2023-04-03T03:52:53;-0.40;1.00
3794;DHT22;1912;51.358;12.282;2023-04-03T03:55:19;-0.40;1.00
3794;DHT22;1912;51.358;12.282;2023-04-03T03:57:44;-0.40;1.00
3794;DHT22;1912;51.358;12.282;2023-04-03T04:00:11;-0.50;1.00
3794;DHT22;1912;51.358;12.282;2023-04-03T04:02:37;-0.50;1.00
3794;DHT22;1912;51.358;12.282;2023-04-03T04:05:03;-0.50;1.00
3794;DHT22;1912;51.358;12.282;2023-04-03T04:07:29;-0.50;1.00
3794;DHT22;1912;51.358;12.282;2023-04-03T04:09:54;-0.50;1.00
3794;DHT22;1912;51.358;12.282;2023-04-03T04:12:20;-0.50;1.00
3794;DHT22;1912;51.358;12.282;2023-04-03T04:14:47;-0.60;1.00
3794;DHT22;1912;51.358;12.282;2023-04-03T04:17:13;-0.60;1.00
3794;DHT22;1912;51.358;12.282;2023-04-03T04:19:39;-0.60;1.00
3794;DHT22;1912;51.358;12.282;2023-04-03T04:22:05;-0.60;1.00
3794;DHT22;1912;51.358;12.282;2023-04-03T04:24:31;-0.60;1.00
3794;DHT22;1912;51.358;12.282;2023-04-03T04:26:56;-0.70;1.00
3794;DHT22;1912;51.358;12.282;2023-04-03T04:29:22;-0.70;1.00
3794;DHT22;1912;51.358;12.282;2023-04-03T04:31:48;-0.70;1.00
3794;DHT22;1912;51.358;12.282;2023-04-03T04:34:14;-0.70;1.00
3794;DHT22;1912;51.358;12.282;2023-04-03T04:36:40;-0.70;1.00
3794;DHT22;1912;51.358;12.282;2023-04-03T04:39:06;-0.80;1.00
3794;DHT22;1912;51.358;12.282;2023-04-03T04:41:32;-0.80;1.00
3794;DHT22;1912;51.358;12.282;2023-04-03T04:43:58;-0.80;1.00
3794;DHT22;1912;51.358;12.282;2023-04-03T04:46:23;-0.80;1.00
3794;DHT22;1912;51.358;12.282;2023-04-03T04:48:49;-0.80;1.00
3794;DHT22;1912;51.358;12.282;2023-04-03T04:51:15;-0.80;1.00
3794;DHT22;1912;51.358;12.282;2023-04-03T04:53:42;-0.90;1.00
3794;DHT22;1912;51.358;12.282;2023-04-03T04:56:08;-0.80;1.00
3794;DHT22;1912;51.358;12.282;2023-04-03T04:58:34;-0.80;1.00
3794;DHT22;1912;51.358;12.282;2023-04-03T05:01:02;-0.80;1.00
3794;DHT22;1912;51.358;12.282;2023-04-03T05:03:28;-0.90;1.00
3794;DHT22;1912;51.358;12.282;2023-04-03T05:05:54;-0.90;1.00
3794;DHT22;1912;51.358;12.282;2023-04-03T05:08:20;-0.90;1.00
3794;DHT22;1912;51.358;12.282;2023-04-03T05:10:46;-0.90;1.00
3794;DHT22;1912;51.358;12.282;2023-04-03T05:13:12;-0.90;1.00
3794;DHT22;1912;51.358;12.282;2023-04-03T05:15:39;-0.80;1.00
3794;DHT22;1912;51.358;12.282;2023-04-03T05:18:05;-0.70;1.00
3794;DHT22;1912;51.358;12.282;2023-04-03T05:20:31;-0.50;1.00
3794;DHT22;1912;51.358;12.282;2023-04-03T05:22:57;-0.40;1.00
3794;DHT22;1912;51.358;12.282;2023-04-03T05:25:24;-0.40;1.00
3794;DHT22;1912;51.358;12.282;2023-04-03T05:27:50;-0.40;1.00
3794;DHT22;1912;51.358;12.282;2023-04-03T05:30:16;-0.30;1.00
3794;DHT22;1912;51.358;12.282;2023-04-03T05:32:42;-0.20;1.00
3794;DHT22;1912;51.358;12.282;2023-04-03T05:35:08;-0.20;1.00
3794;DHT22;1912;51.358;12.282;2023-04-03T05:37:35;-0.20;1.00
3794;DHT22;1912;51.358;12.282;2023-04-03T05:40:01;0.00;1.00
3794;DHT22;1912;51.358;12.282;2023-04-03T05:42:28;0.00;1.00
3794;DHT22;1912;51.358;12.282;2023-04-03T05:44:53;0.00;1.00
3794;DHT22;1912;51.358;12.282;2023-04-03T05:47:19;0.10;1.00
3794;DHT22;1912;51.358;12.282;2023-04-03T05:49:45;0.10;1.00
3794;DHT22;1912;51.358;12.282;2023-04-03T05:54:54;0.10;1.00
3794;DHT22;1912;51.358;12.282;2023-04-03T05:57:19;0.20;1.00
3794;DHT22;1912;51.358;12.282;2023-04-03T05:59:46;0.30;1.00
3794;DHT22;1912;51.358;12.282;2023-04-03T06:02:15;0.40;1.00
3794;DHT22;1912;51.358;12.282;2023-04-03T06:04:41;0.40;1.00
3794;DHT22;1912;51.358;12.282;2023-04-03T06:07:17;0.50;1.00
3794;DHT22;1912;51.358;12.282;2023-04-03T06:09:46;0.60;1.00
3794;DHT22;1912;51.358;12.282;2023-04-03T06:12:12;0.70;1.00
3794;DHT22;1912;51.358;12.282;2023-04-03T06:14:39;0.90;1.00
3794;DHT22;1912;51.358;12.282;2023-04-03T06:17:05;1.00;1.00
3794;DHT22;1912;51.358;12.282;2023-04-03T06:19:31;1.10;1.00
3794;DHT22;1912;51.358;12.282;2023-04-03T06:21:57;1.30;1.00
3794;DHT22;1912;51.358;12.282;2023-04-03T06:24:23;1.30;1.00
3794;DHT22;1912;51.358;12.282;2023-04-03T06:26:51;1.50;1.00
3794;DHT22;1912;51.358;12.282;2023-04-03T06:29:18;1.60;1.00
3794;DHT22;1912;51.358;12.282;2023-04-03T06:31:44;1.70;1.00
3794;DHT22;1912;51.358;12.282;2023-04-03T06:34:10;1.80;1.00
3794;DHT22;1912;51.358;12.282;2023-04-03T06:36:37;1.80;1.00
3794;DHT22;1912;51.358;12.282;2023-04-03T06:39:03;2.00;1.00
3794;DHT22;1912;51.358;12.282;2023-04-03T06:41:29;2.10;1.00
3794;DHT22;1912;51.358;12.282;2023-04-03T06:43:55;2.40;1.00
3794;DHT22;1912;51.358;12.282;2023-04-03T06:46:23;2.20;1.00
3794;DHT22;1912;51.358;12.282;2023-04-03T06:48:49;2.40;1.00
3794;DHT22;1912;51.358;12.282;2023-04-03T06:51:24;2.30;1.00
3794;DHT22;1912;51.358;12.282;2023-04-03T06:53:53;2.30;1.00
3794;DHT22;1912;51.358;12.282;2023-04-03T06:56:22;2.40;1.00
3794;DHT22;1912;51.358;12.282;2023-04-03T06:58:48;2.60;1.00
3794;DHT22;1912;51.358;12.282;2023-04-03T07:01:16;2.60;1.00
3794;DHT22;1912;51.358;12.282;2023-04-03T07:03:44;2.80;1.00
3794;DHT22;1912;51.358;12.282;2023-04-03T07:06:12;3.10;1.00
3794;DHT22;1912;51.358;12.282;2023-04-03T07:08:39;3.30;1.00
3794;DHT22;1912;51.358;12.282;2023-04-03T07:11:05;3.20;1.00
3794;DHT22;1912;51.358;12.282;2023-04-03T07:13:31;3.00;1.00
3794;DHT22;1912;51.358;12.282;2023-04-03T07:15:58;2.90;1.00
3794;DHT22;1912;51.358;12.282;2023-04-03T07:18:24;3.10;1.00
3794;DHT22;1912;51.358;12.282;2023-04-03T07:20:50;3.40;1.00
3794;DHT22;1912;51.358;12.282;2023-04-03T07:23:16;3.10;1.00
3794;DHT22;1912;51.358;12.282;2023-04-03T07:25:46;3.30;1.00
3794;DHT22;1912;51.358;12.282;2023-04-03T07:28:13;3.60;1.00
3794;DHT22;1912;51.358;12.282;2023-04-03T07:30:47;3.50;1.00
3794;DHT22;1912;51.358;12.282;2023-04-03T07:33:16;3.50;1.00
3794;DHT22;1912;51.358;12.282;2023-04-03T07:35:44;3.60;1.00
3794;DHT22;1912;51.358;12.282;2023-04-03T07:38:10;3.60;1.00
3794;DHT22;1912;51.358;12.282;2023-04-03T07:40:37;3.60;1.00
3794;DHT22;1912;51.358;12.282;2023-04-03T07:43:04;3.90;1.00
3794;DHT22;1912;51.358;12.282;2023-04-03T07:45:31;3.90;1.00
3794;DHT22;1912;51.358;12.282;2023-04-03T07:47:57;3.90;1.00
3794;DHT22;1912;51.358;12.282;2023-04-03T07:50:23;3.90;1.00
3794;DHT22;1912;51.358;12.282;2023-04-03T07:52:49;3.90;1.00
3794;DHT22;1912;51.358;12.282;2023-04-03T07:55:16;4.20;1.00
3794;DHT22;1912;51.358;12.282;2023-04-03T07:57:42;4.20;1.00
3794;DHT22;1912;51.358;12.282;2023-04-03T08:00:08;4.60;1.00
3794;DHT22;1912;51.358;12.282;2023-04-03T08:02:35;4.30;1.00
3794;DHT22;1912;51.358;12.282;2023-04-03T08:05:00;4.50;1.00
3794;DHT22;1912;51.358;12.282;2023-04-03T08:07:26;3.90;1.00
3794;DHT22;1912;51.358;12.282;2023-04-03T08:09:52;3.50;1.00
3794;DHT22;1912;51.358;12.282;2023-04-03T08:12:18;3.40;1.00
3794;DHT22;1912;51.358;12.282;2023-04-03T08:14:44;3.20;1.00
3794;DHT22;1912;51.358;12.282;2023-04-03T08:17:10;3.00;1.00
3794;DHT22;1912;51.358;12.282;2023-04-03T08:19:38;3.40;1.00
3794;DHT22;1912;51.358;12.282;2023-04-03T08:22:05;3.30;1.00
3794;DHT22;1912;51.358;12.282;2023-04-03T08:24:32;3.70;1.00
3794;DHT22;1912;51.358;12.282;2023-04-03T08:26:58;4.10;1.00
3794;DHT22;1912;51.358;12.282;2023-04-03T08:29:24;4.40;1.00
3794;DHT22;1912;51.358;12.282;2023-04-03T08:31:51;4.80;1.00
3794;DHT22;1912;51.358;12.282;2023-04-03T08:34:17;5.00;1.00
3794;DHT22;1912;51.358;12.282;2023-04-03T08:36:43;5.30;1.00
3794;DHT22;1912;51.358;12.282;2023-04-03T08:39:10;5.20;1.00
3794;DHT22;1912;51.358;12.282;2023-04-03T08:41:43;5.40;1.00
3794;DHT22;1912;51.358;12.282;2023-04-03T08:50:07;5.90;1.00
3794;DHT22;1912;51.358;12.282;2023-04-03T08:52:41;6.20;1.00
3794;DHT22;1912;51.358;12.282;2023-04-03T08:55:33;5.90;1.00
3794;DHT22;1912;51.358;12.282;2023-04-03T08:58:06;5.60;1.00
3794;DHT22;1912;51.358;12.282;2023-04-03T09:00:44;5.60;1.00
3794;DHT22;1912;51.358;12.282;2023-04-03T09:03:16;5.40;1.00
3794;DHT22;1912;51.358;12.282;2023-04-03T09:06:03;5.90;1.00
3794;DHT22;1912;51.358;12.282;2023-04-03T09:08:36;5.40;1.00
3794;DHT22;1912;51.358;12.282;2023-04-03T09:16:31;6.00;1.00
3794;DHT22;1912;51.358;12.282;2023-04-03T09:22:07;5.60;1.00
3794;DHT22;1912;51.358;12.282;2023-04-03T09:24:39;5.60;1.00
3794;DHT22;1912;51.358;12.282;2023-04-03T09:27:09;6.00;1.00
3794;DHT22;1912;51.358;12.282;2023-04-03T09:29:40;6.70;1.00
3794;DHT22;1912;51.358;12.282;2023-04-03T09:32:27;6.60;1.00
3794;DHT22;1912;51.358;12.282;2023-04-03T09:35:01;7.20;1.00
3794;DHT22;1912;51.358;12.282;2023-04-03T09:37:45;7.80;1.00
3794;DHT22;1912;51.358;12.282;2023-04-03T09:40:31;8.20;1.00
3794;DHT22;1912;51.358;12.282;2023-04-03T09:43:21;8.10;1.00
3794;DHT22;1912;51.358;12.282;2023-04-03T09:45:52;8.00;1.00
3794;DHT22;1912;51.358;12.282;2023-04-03T09:48:23;8.60;1.00
3794;DHT22;1912;51.358;12.282;2023-04-03T09:53:38;7.60;1.00
3794;DHT22;1912;51.358;12.282;2023-04-03T09:58:50;8.00;1.00
3794;DHT22;1912;51.358;12.282;2023-04-03T10:01:38;7.90;1.00
3794;DHT22;1912;51.358;12.282;2023-04-03T10:04:16;8.10;1.00
3794;DHT22;1912;51.358;12.282;2023-04-03T10:07:02;8.30;1.00
3794;DHT22;1912;51.358;12.282;2023-04-03T10:09:31;8.80;1.00
3794;DHT22;1912;51.358;12.282;2023-04-03T10:12:06;8.60;1.00
3794;DHT22;1912;51.358;12.282;2023-04-03T10:14:39;7.80;1.00
3794;DHT22;1912;51.358;12.282;2023-04-03T10:17:36;7.60;1.00
3794;DHT22;1912;51.358;12.282;2023-04-03T10:23:27;8.10;1.00
3794;DHT22;1912;51.358;12.282;2023-04-03T10:35:08;9.10;1.00
3794;DHT22;1912;51.358;12.282;2023-04-03T10:37:55;8.70;1.00
3794;DHT22;1912;51.358;12.282;2023-04-03T10:44:27;7.00;1.00
3794;DHT22;1912;51.358;12.282;2023-04-03T10:48:24;7.60;1.00
3794;DHT22;1912;51.358;12.282;2023-04-03T10:50:48;8.40;1.00
3794;DHT22;1912;51.358;12.282;2023-04-03T10:53:37;7.60;1.00
3794;DHT22;1912;51.358;12.282;2023-04-03T10:56:41;7.10;1.00
3794;DHT22;1912;51.358;12.282;2023-04-03T10:59:44;6.70;1.00
3794;DHT22;1912;51.358;12.282;2023-04-03T11:02:28;6.80;1.00
3794;DHT22;1912;51.358;12.282;2023-04-03T11:05:03;7.10;1.00
3794;DHT22;1912;51.358;12.282;2023-04-03T11:07:45;7.90;1.00
3794;DHT22;1912;51.358;12.282;2023-04-03T11:10:17;6.90;1.00
3794;DHT22;1912;51.358;12.282;2023-04-03T11:13:09;6.50;1.00
3794;DHT22;1912;51.358;12.282;2023-04-03T11:15:38;7.10;1.00
3794;DHT22;1912;51.358;12.282;2023-04-03T11:18:11;7.80;1.00
3794;DHT22;1912;51.358;12.282;2023-04-03T11:20:42;8.40;1.00
3794;DHT22;1912;51.358;12.282;2023-04-03T11:23:34;8.30;1.00
3794;DHT22;1912;51.358;12.282;2023-04-03T11:26:15;8.70;1.00
3794;DHT22;1912;51.358;12.282;2023-04-03T11:28:43;9.40;1.00
3794;DHT22;1912;51.358;12.282;2023-04-03T11:34:53;10.30;1.00
3794;DHT22;1912;51.358;12.282;2023-04-03T11:37:47;10.50;1.00
3794;DHT22;1912;51.358;12.282;2023-04-03T11:40:21;9.20;1.00
3794;DHT22;1912;51.358;12.282;2023-04-03T11:43:02;8.40;1.00
3794;DHT22;1912;51.358;12.282;2023-04-03T11:46:02;8.10;1.00
3794;DHT22;1912;51.358;12.282;2023-04-03T11:50:58;7.40;1.00
3794;DHT22;1912;51.358;12.282;2023-04-03T11:53:32;7.30;1.00
3794;DHT22;1912;51.358;12.282;2023-04-03T11:58:34;7.70;1.00
3794;DHT22;1912;51.358;12.282;2023-04-03T12:01:08;8.00;1.00
3794;DHT22;1912;51.358;12.282;2023-04-03T12:16:45;8.40;1.00
3794;DHT22;1912;51.358;12.282;2023-04-03T12:24:29;10.00;1.00
3794;DHT22;1912;51.358;12.282;2023-04-03T12:30:12;9.10;1.00
3794;DHT22;1912;51.358;12.282;2023-04-03T12:36:05;9.10;1.00
3794;DHT22;1912;51.358;12.282;2023-04-03T12:39:22;9.70;1.00
3794;DHT22;1912;51.358;12.282;2023-04-03T12:44:56;9.60;1.00
3794;DHT22;1912;51.358;12.282;2023-04-03T12:47:34;8.60;1.00
3794;DHT22;1912;51.358;12.282;2023-04-03T12:50:13;8.40;1.00
3794;DHT22;1912;51.358;12.282;2023-04-03T12:53:06;8.10;1.00
3794;DHT22;1912;51.358;12.282;2023-04-03T12:55:36;8.20;1.00
3794;DHT22;1912;51.358;12.282;2023-04-03T12:58:24;8.20;1.00
3794;DHT22;1912;51.358;12.282;2023-04-03T13:01:23;8.10;1.00
3794;DHT22;1912;51.358;12.282;2023-04-03T13:03:55;8.00;1.00
3794;DHT22;1912;51.358;12.282;2023-04-03T13:06:28;7.80;1.00
3794;DHT22;1912;51.358;12.282;2023-04-03T13:09:06;8.10;1.00
3794;DHT22;1912;51.358;12.282;2023-04-03T13:11:48;8.20;1.00
3794;DHT22;1912;51.358;12.282;2023-04-03T13:14:21;7.70;1.00
3794;DHT22;1912;51.358;12.282;2023-04-03T13:16:56;7.60;1.00
3794;DHT22;1912;51.358;12.282;2023-04-03T13:19:24;7.50;1.00
3794;DHT22;1912;51.358;12.282;2023-04-03T13:21:59;7.40;1.00
3794;DHT22;1912;51.358;12.282;2023-04-03T13:24:36;7.20;1.00
3794;DHT22;1912;51.358;12.282;2023-04-03T13:27:03;7.50;1.00
3794;DHT22;1912;51.358;12.282;2023-04-03T13:29:34;7.30;1.00
3794;DHT22;1912;51.358;12.282;2023-04-03T13:32:02;7.20;1.00
3794;DHT22;1912;51.358;12.282;2023-04-03T13:34:36;7.50;1.00
3794;DHT22;1912;51.358;12.282;2023-04-03T13:37:04;7.50;1.00
3794;DHT22;1912;51.358;12.282;2023-04-03T13:39:32;7.50;1.00
3794;DHT22;1912;51.358;12.282;2023-04-03T13:42:20;7.40;1.00
3794;DHT22;1912;51.358;12.282;2023-04-03T13:44:48;7.30;1.00
3794;DHT22;1912;51.358;12.282;2023-04-03T13:47:22;7.50;1.00
3794;DHT22;1912;51.358;12.282;2023-04-03T13:52:46;6.90;1.00
3794;DHT22;1912;51.358;12.282;2023-04-03T13:57:57;6.30;1.00
3794;DHT22;1912;51.358;12.282;2023-04-03T14:00:49;6.10;1.00
3794;DHT22;1912;51.358;12.282;2023-04-03T14:03:37;6.50;1.00
3794;DHT22;1912;51.358;12.282;2023-04-03T14:06:10;6.30;1.00
3794;DHT22;1912;51.358;12.282;2023-04-03T14:08:37;5.90;1.00
3794;DHT22;1912;51.358;12.282;2023-04-03T14:11:03;5.90;1.00
3794;DHT22;1912;51.358;12.282;2023-04-03T14:13:30;5.90;1.00
3794;DHT22;1912;51.358;12.282;2023-04-03T14:15:57;5.80;1.00
3794;DHT22;1912;51.358;12.282;2023-04-03T14:18:22;5.80;1.00
3794;DHT22;1912;51.358;12.282;2023-04-03T14:20:49;5.90;1.00
3794;DHT22;1912;51.358;12.282;2023-04-03T14:23:15;5.80;1.00
3794;DHT22;1912;51.358;12.282;2023-04-03T14:25:41;5.90;1.00
3794;DHT22;1912;51.358;12.282;2023-04-03T14:28:19;5.90;1.00
3794;DHT22;1912;51.358;12.282;2023-04-03T14:30:48;5.80;1.00
3794;DHT22;1912;51.358;12.282;2023-04-03T14:33:18;5.80;1.00
3794;DHT22;1912;51.358;12.282;2023-04-03T14:35:47;5.70;1.00
3794;DHT22;1912;51.358;12.282;2023-04-03T14:38:29;5.70;1.00
3794;DHT22;1912;51.358;12.282;2023-04-03T14:40:56;5.80;1.00
3794;DHT22;1912;51.358;12.282;2023-04-03T14:43:22;5.70;1.00
3794;DHT22;1912;51.358;12.282;2023-04-03T14:45:49;5.70;1.00
3794;DHT22;1912;51.358;12.282;2023-04-03T14:48:22;5.60;1.00
3794;DHT22;1912;51.358;12.282;2023-04-03T14:50:50;5.80;1.00
3794;DHT22;1912;51.358;12.282;2023-04-03T14:53:17;5.60;1.00
3794;DHT22;1912;51.358;12.282;2023-04-03T14:55:48;5.50;1.00
3794;DHT22;1912;51.358;12.282;2023-04-03T14:58:17;5.40;1.00
3794;DHT22;1912;51.358;12.282;2023-04-03T15:00:44;5.40;1.00
3794;DHT22;1912;51.358;12.282;2023-04-03T15:03:15;5.20;1.00
3794;DHT22;1912;51.358;12.282;2023-04-03T15:05:48;5.10;1.00
3794;DHT22;1912;51.358;12.282;2023-04-03T15:08:20;5.20;1.00
3794;DHT22;1912;51.358;12.282;2023-04-03T15:10:47;5.20;1.00
3794;DHT22;1912;51.358;12.282;2023-04-03T15:13:13;5.10;1.00
3794;DHT22;1912;51.358;12.282;2023-04-03T15:15:39;5.20;1.00
3794;DHT22;1912;51.358;12.282;2023-04-03T15:18:06;5.20;1.00
3794;DHT22;1912;51.358;12.282;2023-04-03T15:20:32;5.00;1.00
3794;DHT22;1912;51.358;12.282;2023-04-03T15:22:59;4.90;1.00
3794;DHT22;1912;51.358;12.282;2023-04-03T15:25:30;4.80;1.00
3794;DHT22;1912;51.358;12.282;2023-04-03T15:27:57;4.80;1.00
3794;DHT22;1912;51.358;12.282;2023-04-03T15:30:23;4.80;1.00
3794;DHT22;1912;51.358;12.282;2023-04-03T15:32:48;4.90;1.00
3794;DHT22;1912;51.358;12.282;2023-04-03T15:35:14;4.80;1.00
3794;DHT22;1912;51.358;12.282;2023-04-03T15:37:41;4.80;1.00
3794;DHT22;1912;51.358;12.282;2023-04-03T15:40:07;4.80;1.00
3794;DHT22;1912;51.358;12.282;2023-04-03T15:42:34;4.70;1.00
3794;DHT22;1912;51.358;12.282;2023-04-03T15:45:00;4.80;1.00
3794;DHT22;1912;51.358;12.282;2023-04-03T15:47:26;4.80;1.00
3794;DHT22;1912;51.358;12.282;2023-04-03T15:49:53;4.90;1.00
3794;DHT22;1912;51.358;12.282;2023-04-03T15:52:20;4.90;1.00
3794;DHT22;1912;51.358;12.282;2023-04-03T15:54:45;4.90;1.00
3794;DHT22;1912;51.358;12.282;2023-04-03T15:57:11;4.80;1.00
3794;DHT22;1912;51.358;12.282;2023-04-03T15:59:37;4.70;1.00
3794;DHT22;1912;51.358;12.282;2023-04-03T16:02:05;4.60;1.00
3794;DHT22;1912;51.358;12.282;2023-04-03T16:04:32;4.60;1.00
3794;DHT22;1912;51.358;12.282;2023-04-03T16:07:01;4.60;1.00
3794;DHT22;1912;51.358;12.282;2023-04-03T16:09:28;4.60;1.00
3794;DHT22;1912;51.358;12.282;2023-04-03T16:11:54;4.60;1.00
3794;DHT22;1912;51.358;12.282;2023-04-03T16:14:21;4.50;1.00
3794;DHT22;1912;51.358;12.282;2023-04-03T16:16:47;4.40;1.00
3794;DHT22;1912;51.358;12.282;2023-04-03T16:19:16;4.50;1.00
3794;DHT22;1912;51.358;12.282;2023-04-03T16:21:42;4.40;1.00
3794;DHT22;1912;51.358;12.282;2023-04-03T16:24:08;4.40;1.00
3794;DHT22;1912;51.358;12.282;2023-04-03T16:26:34;4.30;1.00
3794;DHT22;1912;51.358;12.282;2023-04-03T16:29:00;4.30;1.00
3794;DHT22;1912;51.358;12.282;2023-04-03T16:31:26;4.30;1.00
3794;DHT22;1912;51.358;12.282;2023-04-03T16:33:52;4.30;1.00
3794;DHT22;1912;51.358;12.282;2023-04-03T16:36:18;4.40;1.00
3794;DHT22;1912;51.358;12.282;2023-04-03T16:38:44;4.30;1.00
3794;DHT22;1912;51.358;12.282;2023-04-03T16:41:09;4.20;1.00
3794;DHT22;1912;51.358;12.282;2023-04-03T16:43:35;4.20;1.00
3794;DHT22;1912;51.358;12.282;2023-04-03T16:46:02;4.20;1.00
3794;DHT22;1912;51.358;12.282;2023-04-03T16:48:28;4.20;1.00
3794;DHT22;1912;51.358;12.282;2023-04-03T16:50:55;4.20;1.00
3794;DHT22;1912;51.358;12.282;2023-04-03T16:53:21;4.20;1.00
3794;DHT22;1912;51.358;12.282;2023-04-03T16:55:48;4.20;1.00
3794;DHT22;1912;51.358;12.282;2023-04-03T16:58:14;4.20;1.00
3794;DHT22;1912;51.358;12.282;2023-04-03T17:00:40;4.30;1.00
3794;DHT22;1912;51.358;12.282;2023-04-03T17:03:07;4.30;1.00
3794;DHT22;1912;51.358;12.282;2023-04-03T17:05:32;4.20;1.00
3794;DHT22;1912;51.358;12.282;2023-04-03T17:07:58;4.20;1.00
3794;DHT22;1912;51.358;12.282;2023-04-03T17:10:24;4.10;1.00
3794;DHT22;1912;51.358;12.282;2023-04-03T17:12:50;4.20;1.00
3794;DHT22;1912;51.358;12.282;2023-04-03T17:15:16;4.10;1.00
3794;DHT22;1912;51.358;12.282;2023-04-03T17:17:42;4.00;1.00
3794;DHT22;1912;51.358;12.282;2023-04-03T17:20:09;4.00;1.00
3794;DHT22;1912;51.358;12.282;2023-04-03T17:22:39;4.00;1.00
3794;DHT22;1912;51.358;12.282;2023-04-03T17:25:05;4.00;1.00
3794;DHT22;1912;51.358;12.282;2023-04-03T17:27:31;4.00;1.00
3794;DHT22;1912;51.358;12.282;2023-04-03T17:29:57;4.00;1.00
3794;DHT22;1912;51.358;12.282;2023-04-03T17:32:22;4.00;1.00
3794;DHT22;1912;51.358;12.282;2023-04-03T17:34:50;3.90;1.00
3794;DHT22;1912;51.358;12.282;2023-04-03T17:37:16;3.90;1.00
3794;DHT22;1912;51.358;12.282;2023-04-03T17:39:42;3.90;1.00
3794;DHT22;1912;51.358;12.282;2023-04-03T17:42:07;3.90;1.00
3794;DHT22;1912;51.358;12.282;2023-04-03T17:44:33;3.90;1.00
3794;DHT22;1912;51.358;12.282;2023-04-03T17:46:59;3.80;1.00
3794;DHT22;1912;51.358;12.282;2023-04-03T17:49:25;3.90;1.00
3794;DHT22;1912;51.358;12.282;2023-04-03T17:51:50;3.80;1.00
3794;DHT22;1912;51.358;12.282;2023-04-03T17:54:18;3.80;1.00
3794;DHT22;1912;51.358;12.282;2023-04-03T17:56:43;3.80;1.00
3794;DHT22;1912;51.358;12.282;2023-04-03T17:59:13;3.80;1.00
3794;DHT22;1912;51.358;12.282;2023-04-03T18:01:43;3.80;1.00
3794;DHT22;1912;51.358;12.282;2023-04-03T18:04:09;3.80;1.00
3794;DHT22;1912;51.358;12.282;2023-04-03T18:06:49;3.80;1.00
3794;DHT22;1912;51.358;12.282;2023-04-03T18:09:18;3.80;1.00
3794;DHT22;1912;51.358;12.282;2023-04-03T18:11:46;3.80;1.00
3794;DHT22;1912;51.358;12.282;2023-04-03T18:14:17;3.80;1.00
3794;DHT22;1912;51.358;12.282;2023-04-03T18:16:44;3.80;1.00
3794;DHT22;1912;51.358;12.282;2023-04-03T18:19:10;3.70;1.00
3794;DHT22;1912;51.358;12.282;2023-04-03T18:21:37;3.80;1.00
3794;DHT22;1912;51.358;12.282;2023-04-03T18:24:04;3.70;1.00
3794;DHT22;1912;51.358;12.282;2023-04-03T18:26:32;3.70;1.00
3794;DHT22;1912;51.358;12.282;2023-04-03T18:29:03;3.70;1.00
3794;DHT22;1912;51.358;12.282;2023-04-03T18:31:32;3.70;1.00
3794;DHT22;1912;51.358;12.282;2023-04-03T18:33:58;3.70;1.00
3794;DHT22;1912;51.358;12.282;2023-04-03T18:36:25;3.70;1.00
3794;DHT22;1912;51.358;12.282;2023-04-03T18:38:52;3.70;1.00
3794;DHT22;1912;51.358;12.282;2023-04-03T18:41:19;3.60;1.00
3794;DHT22;1912;51.358;12.282;2023-04-03T18:43:47;3.60;1.00
3794;DHT22;1912;51.358;12.282;2023-04-03T18:46:12;3.60;1.00
3794;DHT22;1912;51.358;12.282;2023-04-03T18:48:38;3.60;1.00
3794;DHT22;1912;51.358;12.282;2023-04-03T18:51:09;3.60;1.00
3794;DHT22;1912;51.358;12.282;2023-04-03T18:53:35;3.50;1.00
3794;DHT22;1912;51.358;12.282;2023-04-03T18:56:01;3.60;1.00
3794;DHT22;1912;51.358;12.282;2023-04-03T18:58:27;3.60;1.00
3794;DHT22;1912;51.358;12.282;2023-04-03T19:00:53;3.60;1.00
3794;DHT22;1912;51.358;12.282;2023-04-03T19:03:19;3.60;1.00
3794;DHT22;1912;51.358;12.282;2023-04-03T19:05:44;3.50;1.00
3794;DHT22;1912;51.358;12.282;2023-04-03T19:08:11;3.60;1.00
3794;DHT22;1912;51.358;12.282;2023-04-03T19:10:37;3.50;1.00
3794;DHT22;1912;51.358;12.282;2023-04-03T19:13:02;3.50;1.00
3794;DHT22;1912;51.358;12.282;2023-04-03T19:15:28;3.50;1.00
3794;DHT22;1912;51.358;12.282;2023-04-03T19:17:57;3.50;1.00
3794;DHT22;1912;51.358;12.282;2023-04-03T19:20:23;3.50;1.00
3794;DHT22;1912;51.358;12.282;2023-04-03T19:22:58;3.50;1.00
3794;DHT22;1912;51.358;12.282;2023-04-03T19:25:23;3.40;1.00
3794;DHT22;1912;51.358;12.282;2023-04-03T19:27:49;3.50;1.00
3794;DHT22;1912;51.358;12.282;2023-04-03T19:30:16;3.40;1.00
3794;DHT22;1912;51.358;12.282;2023-04-03T19:32:41;3.50;1.00
3794;DHT22;1912;51.358;12.282;2023-04-03T19:35:07;3.50;1.00
3794;DHT22;1912;51.358;12.282;2023-04-03T19:37:34;3.40;1.00
3794;DHT22;1912;51.358;12.282;2023-04-03T19:40:00;3.40;1.00
3794;DHT22;1912;51.358;12.282;2023-04-03T19:42:29;3.40;1.00
3794;DHT22;1912;51.358;12.282;2023-04-03T19:44:56;3.40;1.00
3794;DHT22;1912;51.358;12.282;2023-04-03T19:47:21;3.40;1.00
3794;DHT22;1912;51.358;12.282;2023-04-03T19:49:48;3.40;1.00
3794;DHT22;1912;51.358;12.282;2023-04-03T19:52:14;3.40;1.00
3794;DHT22;1912;51.358;12.282;2023-04-03T19:54:39;3.40;1.00
3794;DHT22;1912;51.358;12.282;2023-04-03T19:57:05;3.50;1.00
3794;DHT22;1912;51.358;12.282;2023-04-03T19:59:32;3.40;1.00
3794;DHT22;1912;51.358;12.282;2023-04-03T20:01:57;3.40;1.00
3794;DHT22;1912;51.358;12.282;2023-04-03T20:04:24;3.40;1.00
3794;DHT22;1912;51.358;12.282;2023-04-03T20:06:49;3.40;1.00
3794;DHT22;1912;51.358;12.282;2023-04-03T20:09:16;3.40;1.00
3794;DHT22;1912;51.358;12.282;2023-04-03T20:11:43;3.40;1.00
3794;DHT22;1912;51.358;12.282;2023-04-03T20:14:14;3.50;1.00
3794;DHT22;1912;51.358;12.282;2023-04-03T20:16:41;3.50;1.00
3794;DHT22;1912;51.358;12.282;2023-04-03T20:19:08;3.50;1.00
3794;DHT22;1912;51.358;12.282;2023-04-03T20:21:34;3.40;1.00
3794;DHT22;1912;51.358;12.282;2023-04-03T20:24:01;3.40;1.00
3794;DHT22;1912;51.358;12.282;2023-04-03T20:26:29;3.40;1.00
3794;DHT22;1912;51.358;12.282;2023-04-03T20:28:58;3.40;1.00
3794;DHT22;1912;51.358;12.282;2023-04-03T20:31:27;3.40;1.00
3794;DHT22;1912;51.358;12.282;2023-04-03T20:33:53;3.40;1.00
3794;DHT22;1912;51.358;12.282;2023-04-03T20:36:19;3.40;1.00
3794;DHT22;1912;51.358;12.282;2023-04-03T20:38:46;3.40;1.00
3794;DHT22;1912;51.358;12.282;2023-04-03T20:41:14;3.40;1.00
3794;DHT22;1912;51.358;12.282;2023-04-03T20:43:41;3.30;1.00
3794;DHT22;1912;51.358;12.282;2023-04-03T20:46:08;3.30;1.00
3794;DHT22;1912;51.358;12.282;2023-04-03T20:48:35;3.30;1.00
3794;DHT22;1912;51.358;12.282;2023-04-03T20:51:17;3.30;1.00
3794;DHT22;1912;51.358;12.282;2023-04-03T20:53:45;3.30;1.00
3794;DHT22;1912;51.358;12.282;2023-04-03T20:56:12;3.30;1.00
3794;DHT22;1912;51.358;12.282;2023-04-03T20:58:39;3.30;1.00
3794;DHT22;1912;51.358;12.282;2023-04-03T21:01:23;3.20;1.00
3794;DHT22;1912;51.358;12.282;2023-04-03T21:03:50;3.30;1.00
3794;DHT22;1912;51.358;12.282;2023-04-03T21:21:45;3.10;1.00
3794;DHT22;1912;51.358;12.282;2023-04-03T21:24:12;3.20;1.00
3794;DHT22;1912;51.358;12.282;2023-04-03T21:26:39;3.20;1.00
3794;DHT22;1912;51.358;12.282;2023-04-03T21:29:06;3.20;1.00
3794;DHT22;1912;51.358;12.282;2023-04-03T21:34:18;3.20;1.00
3794;DHT22;1912;51.358;12.282;2023-04-03T21:36:45;3.20;1.00
3794;DHT22;1912;51.358;12.282;2023-04-03T21:39:11;3.20;1.00
3794;DHT22;1912;51.358;12.282;2023-04-03T21:41:37;3.20;1.00
3794;DHT22;1912;51.358;12.282;2023-04-03T21:44:03;3.20;1.00
3794;DHT22;1912;51.358;12.282;2023-04-03T21:46:29;3.10;1.00
3794;DHT22;1912;51.358;12.282;2023-04-03T21:48:55;3.10;1.00
3794;DHT22;1912;51.358;12.282;2023-04-03T21:51:21;3.00;1.00
3794;DHT22;1912;51.358;12.282;2023-04-03T21:53:56;3.10;1.00
3794;DHT22;1912;51.358;12.282;2023-04-03T21:56:22;3.10;1.00
3794;DHT22;1912;51.358;12.282;2023-04-03T21:58:52;3.00;1.00